Burden Field-(Rabbit Run) Airport

61WA · 华盛顿州, 美国

罗盘
风向 的
风: 0 kt, 0 beaufort

添加一条跑道以查看侧风和逆风信息。

添置 跑道
0 1.000 2.000 3.000 4.000 5.000
没有云
SPECI KFHR 290753Z AUTO 00000KT 10SM CLR M04/M09 A3005 RMK AO2 SLP175 T10391089 400391050

METAR Burden Field-(Rabbit Run) Airport - 61WA

Burden Field-(Rabbit Run) Airport是,美国中的小机场。 视场标高为50 ft。 该领域的国际民航组织标志是61WA.

这份报告是针对2022年11月28日 23:53, 当地时间在Friday Harbor Airport进行的。

机场观察

可变方向的风很小或没有风。

可见度为10 mi。

有没有云。 没有观察到天花板。

温度和风寒是-4 °C。 露点为-9 °C,相对湿度为69%。 海平面上的气压为30,05 inHg (QNH)。

白天

今天,太阳从07:40升起,在16:20降落。 这适用于Burden Field-(Rabbit Run) Airport,世界夏令时可能有所不同。 当地时间与世界标准时间之间的时差为-8 小时。 当前,没有夏令时有效。

公司介绍

我们没有关于这个机场的公司信息。

体会

到Vliegles.nl去找飞行课程,跳伞和其他飞行体验。 浏览页面,了解Burden Field-(Rabbit Run) Airport附近所有可用的活动。 你也可以使用搜索功能来寻找你所在地附近的特定飞行课程、跳伞或其他飞行体验。

乌云

- CLR 没有云

温度 & 天气

温度 -3,9 °C
露点 -8,9 °C
相对湿度 69%
Kp-index 3 (0-9)

评论

AO2自动气象站,可确定降水类型
SLP175海平面压力为30,05 inHg (30,05 inHg)
T10391089温度为-3,9 °C (25,0 °F),露点为-8,9 °C (16,0 °F)
400391050

白天

日出
07:40 (6:54)
中午
12:00
日落
16:20

小工具

你想在你的网站上有一个关于Burden Field-(Rabbit Run) Airport的当前航空天气(METAR)的小部件吗?

显示HTML代码

我们和第三方通过cookies跟踪您在我们网站上的互联网行为。如果你继续,我们认为你同意我们的饼干政策